Time;durP1;ratioP1;P1;durP2;ratioP2;P2;SDS_P1;SDS_P2;PMS_P1;PMS_P2;Temp;Humidity;BMP_temperature;BMP_pressure;BME280_temperature;BME280_humidity;BME280_pressure;Samples;Min_cycle;Max_cycle;Signal;HPM_P1;HPM_P2
2021/04/06 00:00:30;;;;;;;29.02;3.40;;;5.10;96.30;;;;;;5060300;28;20199;-77
2021/04/06 00:03:00;;;;;;;24.80;3.65;;;5.20;96.20;;;;;;5062715;28;20657;-74
2021/04/06 00:05:29;;;;;;;26.33;3.42;;;5.20;96.10;;;;;;5061623;28;20232;-76
2021/04/06 00:07:57;;;;;;;28.67;3.65;;;5.20;96.00;;;;;;5062280;28;20207;-76
2021/04/06 00:10:28;;;;;;;28.42;4.20;;;5.20;95.90;;;;;;5064382;28;20205;-76
2021/04/06 00:12:56;;;;;;;30.30;4.57;;;5.20;95.80;;;;;;5062816;28;20263;-75
2021/04/06 00:15:24;;;;;;;31.38;4.18;;;5.20;95.80;;;;;;5061695;28;20324;-77
2021/04/06 00:17:53;;;;;;;19.50;2.97;;;5.20;95.80;;;;;;5061886;28;20301;-76
2021/04/06 00:20:21;;;;;;;19.75;3.17;;;5.20;95.80;;;;;;5047061;28;20274;-75
2021/04/06 00:22:50;;;;;;;21.45;3.17;;;5.30;95.80;;;;;;5062392;28;20206;-75
2021/04/06 00:25:20;;;;;;;18.83;3.55;;;5.30;95.80;;;;;;5061919;28;20203;-75
2021/04/06 00:27:49;;;;;;;20.48;3.20;;;5.30;95.60;;;;;;5058950;28;20203;-75
2021/04/06 00:30:22;;;;;;;26.92;4.25;;;5.30;95.60;;;;;;5060827;28;20278;-76
2021/04/06 00:32:54;;;;;;;25.15;3.47;;;5.30;95.50;;;;;;5064276;28;20209;-76
2021/04/06 00:35:27;;;;;;;26.65;2.95;;;5.30;95.40;;;;;;5064000;28;20218;-76
2021/04/06 00:37:56;;;;;;;22.98;3.53;;;5.30;95.20;;;;;;5055198;28;20231;-76
2021/04/06 00:40:26;;;;;;;28.73;3.42;;;5.30;95.10;;;;;;5059499;28;20293;-75
2021/04/06 00:43:00;;;;;;;19.80;2.75;;;5.30;95.00;;;;;;5062593;28;20328;-75
2021/04/06 00:45:27;;;;;;;16.60;2.80;;;5.20;94.90;;;;;;5042872;28;20195;-75
2021/04/06 00:47:58;;;;;;;20.35;3.05;;;5.20;94.90;;;;;;5056243;28;20191;-74
2021/04/06 00:50:30;;;;;;;16.00;2.40;;;5.20;94.90;;;;;;5059174;28;20203;-77
2021/04/06 00:53:00;;;;;;;22.27;2.20;;;5.20;94.80;;;;;;5061941;28;20203;-75
2021/04/06 00:55:33;;;;;;;20.02;2.10;;;5.10;94.70;;;;;;5064007;28;20248;-77
2021/04/06 00:58:00;;;;;;;13.25;1.83;;;5.10;94.60;;;;;;5063870;28;20219;-77
2021/04/06 01:00:29;;;;;;;12.30;1.90;;;5.10;94.60;;;;;;5057324;28;20294;-76
2021/04/06 01:03:02;;;;;;;12.68;2.05;;;5.10;94.60;;;;;;5047201;28;20675;-76
2021/04/06 01:05:30;;;;;;;19.08;2.53;;;5.10;94.60;;;;;;5057262;28;20207;-75
2021/04/06 01:07:57;;;;;;;16.17;2.17;;;5.10;94.50;;;;;;5064640;28;20209;-77
2021/04/06 01:10:27;;;;;;;19.52;3.10;;;5.10;94.50;;;;;;5045496;28;20301;-75
2021/04/06 01:12:55;;;;;;;19.15;3.80;;;5.00;94.50;;;;;;5043071;28;20198;-77
2021/04/06 01:15:22;;;;;;;24.90;3.83;;;5.10;94.50;;;;;;5060208;28;21471;-75
2021/04/06 01:17:49;;;;;;;17.83;3.20;;;5.10;94.60;;;;;;5054118;28;20292;-74
2021/04/06 01:20:18;;;;;;;16.92;2.97;;;5.10;94.80;;;;;;5060741;28;20199;-77
2021/04/06 01:22:45;;;;;;;16.67;2.42;;;5.00;94.60;;;;;;5060506;28;20271;-74
2021/04/06 01:25:19;;;;;;;18.60;2.67;;;5.10;94.60;;;;;;5043230;28;20241;-74
2021/04/06 01:27:46;;;;;;;16.52;2.30;;;5.10;94.50;;;;;;5061485;28;20202;-76
2021/04/06 01:30:15;;;;;;;19.42;2.45;;;5.00;94.30;;;;;;5058980;28;20210;-76
2021/04/06 01:32:42;;;;;;;22.40;3.00;;;5.00;93.90;;;;;;5059338;28;20683;-75
2021/04/06 01:35:10;;;;;;;20.23;2.03;;;5.00;93.60;;;;;;5057864;28;20199;-75
2021/04/06 01:37:37;;;;;;;15.85;2.53;;;4.90;93.50;;;;;;5060637;28;20718;-77
2021/04/06 01:40:05;;;;;;;23.30;2.90;;;4.80;93.50;;;;;;5042139;28;20203;-76
2021/04/06 01:42:36;;;;;;;21.27;2.90;;;4.80;93.50;;;;;;5056744;28;20233;-76
2021/04/06 01:45:07;;;;;;;18.45;2.10;;;4.80;93.60;;;;;;5059971;28;20636;-75
2021/04/06 01:47:35;;;;;;;12.90;1.90;;;4.70;93.60;;;;;;5058607;28;20203;-75
2021/04/06 01:50:02;;;;;;;11.45;1.90;;;4.60;93.60;;;;;;5058622;28;20245;-75
2021/04/06 01:52:29;;;;;;;12.82;1.88;;;4.60;93.60;;;;;;5061543;28;20604;-75
2021/04/06 01:54:59;;;;;;;13.30;1.83;;;4.60;93.60;;;;;;5055758;28;20199;-75
2021/04/06 01:57:29;;;;;;;12.05;1.98;;;4.50;93.60;;;;;;5063973;28;20967;-75
2021/04/06 02:00:00;;;;;;;13.95;2.38;;;4.50;93.60;;;;;;5055632;28;20210;-74
2021/04/06 02:02:27;;;;;;;20.58;2.30;;;4.50;93.70;;;;;;5057731;28;20222;-77
2021/04/06 02:04:58;;;;;;;18.52;2.38;;;4.40;93.80;;;;;;5057369;28;20601;-75
2021/04/06 02:07:28;;;;;;;21.15;2.63;;;4.40;94.00;;;;;;5059159;28;20195;-74
2021/04/06 02:09:54;;;;;;;15.68;2.13;;;4.40;94.10;;;;;;5062626;28;20195;-76
2021/04/06 02:12:23;;;;;;;12.68;2.15;;;4.30;94.20;;;;;;5057387;28;20199;-75
2021/04/06 02:14:52;;;;;;;13.10;1.98;;;4.30;94.30;;;;;;5060337;28;20219;-74
2021/04/06 02:17:20;;;;;;;11.18;1.30;;;4.20;94.40;;;;;;5058142;28;20222;-74
2021/04/06 02:19:46;;;;;;;7.35;1.40;;;4.20;94.50;;;;;;5058078;28;20746;-75
2021/04/06 02:22:15;;;;;;;7.15;0.93;;;4.20;94.50;;;;;;5058328;28;20273;-75
2021/04/06 02:24:43;;;;;;;7.32;1.30;;;4.10;94.60;;;;;;5058713;28;20203;-77
2021/04/06 02:27:15;;;;;;;6.95;1.30;;;4.20;94.60;;;;;;5061127;28;20190;-77
2021/04/06 02:29:43;;;;;;;13.80;2.15;;;4.20;94.60;;;;;;5062546;28;20294;-76
2021/04/06 02:32:14;;;;;;;12.15;1.38;;;4.20;94.60;;;;;;5064512;28;20229;-76
2021/04/06 02:34:43;;;;;;;16.30;2.38;;;4.20;94.60;;;;;;5058794;28;20199;-74
2021/04/06 02:37:18;;;;;;;15.38;1.95;;;4.20;94.50;;;;;;5060614;28;20262;-75
2021/04/06 02:39:45;;;;;;;10.18;1.90;;;4.10;94.50;;;;;;5063339;28;20201;-74
2021/04/06 02:42:24;;;;;;;8.07;1.67;;;4.10;94.40;;;;;;5041454;28;20203;-75
2021/04/06 02:44:55;;;;;;;13.63;1.88;;;4.10;94.50;;;;;;5034584;28;20202;-75
2021/04/06 02:47:23;;;;;;;11.02;1.92;;;4.10;94.50;;;;;;5043280;28;20601;-75
2021/04/06 02:49:50;;;;;;;13.30;1.88;;;4.10;94.50;;;;;;5057298;28;20217;-75
2021/04/06 02:52:17;;;;;;;16.55;2.60;;;4.10;94.60;;;;;;5058630;28;20643;-76
2021/04/06 02:54:44;;;;;;;13.80;2.30;;;4.10;94.70;;;;;;5061888;28;20647;-75
2021/04/06 02:57:21;;;;;;;18.45;2.60;;;4.10;94.80;;;;;;5065401;28;20210;-75
2021/04/06 02:59:48;;;;;;;10.77;1.80;;;4.10;94.90;;;;;;5061949;28;20206;-75
2021/04/06 03:02:15;;;;;;;8.25;1.48;;;4.10;95.00;;;;;;5065570;28;20199;-74
2021/04/06 03:04:43;;;;;;;10.02;1.70;;;4.00;94.90;;;;;;5066235;28;20210;-77
2021/04/06 03:07:18;;;;;;;8.50;1.30;;;4.00;95.00;;;;;;5060921;28;21829;-75
2021/04/06 03:09:53;;;;;;;8.15;1.50;;;3.90;95.10;;;;;;5043412;28;20207;-75
2021/04/06 03:12:20;;;;;;;7.65;1.38;;;3.80;95.20;;;;;;5066268;28;20206;-75
2021/04/06 03:14:48;;;;;;;11.73;1.63;;;3.80;95.40;;;;;;5060958;28;22771;-75
2021/04/06 03:17:15;;;;;;;9.63;1.35;;;3.80;95.50;;;;;;5060725;28;20218;-75
2021/04/06 03:19:43;;;;;;;13.75;1.90;;;3.80;95.70;;;;;;5062222;28;20666;-76
2021/04/06 03:22:11;;;;;;;15.02;2.00;;;3.80;95.80;;;;;;5043896;28;20689;-75
2021/04/06 03:24:40;;;;;;;18.17;2.30;;;3.80;95.90;;;;;;5062750;28;20202;-76
2021/04/06 03:27:07;;;;;;;14.95;2.20;;;3.80;96.00;;;;;;5063268;28;20274;-76
2021/04/06 03:29:35;;;;;;;16.08;2.08;;;3.70;96.00;;;;;;5061031;28;20265;-75
2021/04/06 03:32:03;;;;;;;25.10;3.15;;;3.80;96.20;;;;;;5058606;28;20199;-76
2021/04/06 03:34:31;;;;;;;17.25;2.63;;;3.80;96.30;;;;;;5061520;28;20202;-74
2021/04/06 03:36:58;;;;;;;23.45;2.70;;;3.80;96.40;;;;;;5061646;28;20324;-75
2021/04/06 03:39:27;;;;;;;16.15;2.22;;;3.90;96.40;;;;;;5062885;28;20668;-75
2021/04/06 03:41:54;;;;;;;15.85;1.98;;;3.80;96.20;;;;;;5060370;28;20606;-74
2021/04/06 03:44:28;;;;;;;21.98;2.10;;;3.70;96.20;;;;;;5046249;28;20202;-73
2021/04/06 03:46:59;;;;;;;12.73;2.30;;;3.70;96.30;;;;;;5061310;28;20203;-73
2021/04/06 03:49:28;;;;;;;19.10;2.45;;;3.60;96.50;;;;;;5056844;28;20217;-73
2021/04/06 03:51:56;;;;;;;16.17;2.25;;;3.60;96.60;;;;;;5063376;28;20282;-74
2021/04/06 03:54:39;;;;;;;16.23;2.50;;;3.50;97.10;;;;;;5062680;28;20223;-72
2021/04/06 03:57:44;;;;;;;14.25;1.90;;;3.50;96.80;;;;;;5062976;28;20206;-73
2021/04/06 04:00:11;;;;;;;11.73;1.60;;;3.50;96.90;;;;;;4994169;28;20247;-72
2021/04/06 04:02:38;;;;;;;18.02;2.00;;;3.50;97.00;;;;;;5054654;28;20206;-73
2021/04/06 04:05:06;;;;;;;13.15;2.03;;;3.50;97.00;;;;;;5059518;28;20256;-72
2021/04/06 04:07:33;;;;;;;17.67;2.13;;;3.50;97.10;;;;;;5059898;28;20267;-73
2021/04/06 04:10:00;;;;;;;13.65;2.10;;;3.50;97.10;;;;;;5059774;28;20217;-74
2021/04/06 04:12:26;;;;;;;8.65;1.70;;;3.50;97.30;;;;;;5059240;28;20282;-73
2021/04/06 04:14:55;;;;;;;12.57;1.67;;;3.50;97.40;;;;;;5044601;28;20207;-72
2021/04/06 04:17:21;;;;;;;7.40;1.73;;;3.40;97.50;;;;;;5046607;28;20508;-73
2021/04/06 04:19:48;;;;;;;9.57;1.55;;;3.40;97.60;;;;;;5059737;28;20214;-72
2021/04/06 04:22:14;;;;;;;6.90;1.20;;;3.40;97.80;;;;;;5059627;28;20737;-73
2021/04/06 04:24:41;;;;;;;9.00;1.73;;;3.40;97.80;;;;;;5058926;28;20286;-74
2021/04/06 04:27:07;;;;;;;11.40;1.50;;;3.40;97.90;;;;;;5046883;28;20203;-72
2021/04/06 04:29:34;;;;;;;11.82;1.45;;;3.40;98.00;;;;;;5057313;28;20191;-73
2021/04/06 04:32:01;;;;;;;8.98;1.65;;;3.40;98.00;;;;;;5060114;28;20209;-73
2021/04/06 04:34:27;;;;;;;15.60;1.75;;;3.40;98.10;;;;;;5036779;28;20218;-73
2021/04/06 04:36:54;;;;;;;9.57;1.73;;;3.40;98.10;;;;;;5057997;28;20663;-74
2021/04/06 04:39:20;;;;;;;10.88;1.48;;;3.40;98.10;;;;;;5058960;28;20303;-73
2021/04/06 04:41:51;;;;;;;11.07;2.03;;;3.50;98.10;;;;;;5041167;28;20194;-73
2021/04/06 04:44:18;;;;;;;16.00;2.33;;;3.50;98.10;;;;;;5044957;28;20659;-73
2021/04/06 04:46:45;;;;;;;14.65;2.10;;;3.50;98.10;;;;;;5061222;28;20210;-72
2021/04/06 04:49:13;;;;;;;20.92;2.47;;;3.50;98.10;;;;;;5061757;28;20872;-73
2021/04/06 04:51:39;;;;;;;14.98;2.15;;;3.50;98.10;;;;;;5058597;28;20217;-72
2021/04/06 04:54:06;;;;;;;13.30;1.50;;;3.40;98.10;;;;;;5062173;28;20191;-72
2021/04/06 04:56:32;;;;;;;13.60;2.00;;;3.40;98.20;;;;;;5059394;28;20205;-73
2021/04/06 04:58:59;;;;;;;14.05;1.88;;;3.30;98.30;;;;;;5059844;28;20247;-72
2021/04/06 05:01:25;;;;;;;10.70;1.60;;;3.20;98.40;;;;;;5036240;28;20203;-72
2021/04/06 05:03:51;;;;;;;17.15;1.63;;;3.20;98.40;;;;;;5041587;28;20751;-72
2021/04/06 05:06:19;;;;;;;12.23;2.05;;;3.20;98.60;;;;;;5059984;28;20551;-73
2021/04/06 05:08:45;;;;;;;17.27;1.75;;;3.10;98.70;;;;;;5060731;28;20195;-73
2021/04/06 05:11:13;;;;;;;12.75;2.03;;;3.10;98.80;;;;;;5059184;28;20257;-71
2021/04/06 05:13:39;;;;;;;12.10;1.88;;;3.10;98.90;;;;;;5058593;28;20775;-72
2021/04/06 05:16:06;;;;;;;9.35;1.38;;;3.10;98.90;;;;;;5061406;28;20278;-74
2021/04/06 05:18:33;;;;;;;14.45;1.75;;;3.10;99.00;;;;;;5041400;28;20284;-73
2021/04/06 05:20:59;;;;;;;10.88;1.70;;;3.10;99.00;;;;;;5056672;28;20199;-72
2021/04/06 05:23:26;;;;;;;9.23;1.70;;;3.10;99.10;;;;;;5058817;28;20198;-72
2021/04/06 05:25:54;;;;;;;17.13;2.30;;;3.20;99.20;;;;;;5060375;28;20305;-73
2021/04/06 05:28:21;;;;;;;13.40;2.10;;;3.20;99.20;;;;;;5056230;28;20289;-74
2021/04/06 05:30:47;;;;;;;13.15;1.88;;;3.20;99.30;;;;;;5059925;28;20195;-75
2021/04/06 05:33:14;;;;;;;15.20;2.53;;;3.30;99.30;;;;;;5060862;28;20202;-75
2021/04/06 05:35:40;;;;;;;15.18;1.98;;;3.30;99.40;;;;;;5057189;28;20241;-73
2021/04/06 05:38:07;;;;;;;15.77;2.22;;;3.30;99.40;;;;;;5063539;28;20265;-74
2021/04/06 05:40:34;;;;;;;14.65;1.80;;;3.30;99.40;;;;;;5045771;28;20275;-74
2021/04/06 05:43:02;;;;;;;12.95;1.90;;;3.30;99.40;;;;;;5042921;28;20202;-75
2021/04/06 05:45:31;;;;;;;14.68;1.70;;;3.40;99.30;;;;;;5060719;28;20282;-74
2021/04/06 05:48:02;;;;;;;14.27;2.17;;;3.40;99.30;;;;;;5057865;28;20227;-74
2021/04/06 05:50:28;;;;;;;19.80;1.92;;;3.40;99.20;;;;;;5042198;28;20634;-74
2021/04/06 05:52:55;;;;;;;20.73;2.38;;;3.40;99.10;;;;;;5061618;28;20200;-75
2021/04/06 05:55:22;;;;;;;13.55;1.98;;;3.40;99.00;;;;;;5043000;28;20203;-74
2021/04/06 05:57:49;;;;;;;14.85;1.92;;;3.40;99.00;;;;;;5043704;28;20333;-77
2021/04/06 06:00:17;;;;;;;13.95;2.60;;;3.50;98.90;;;;;;5058742;28;20230;-75
2021/04/06 06:02:44;;;;;;;12.90;2.22;;;3.50;98.90;;;;;;5041084;28;20194;-74
2021/04/06 06:05:11;;;;;;;20.27;2.28;;;3.60;98.90;;;;;;5042165;28;20198;-74
2021/04/06 06:07:38;;;;;;;9.52;1.70;;;3.60;98.90;;;;;;5057231;28;20336;-76
2021/04/06 06:10:27;;;;;;;9.52;1.67;;;3.60;98.80;;;;;;5056163;28;20213;-74
2021/04/06 06:12:55;;;;;;;10.15;1.60;;;3.60;98.60;;;;;;5057279;28;20210;-75
2021/04/06 06:15:21;;;;;;;9.07;1.35;;;3.60;98.50;;;;;;5057108;28;20203;-74
2021/04/06 06:18:04;;;;;;;6.47;1.50;;;3.50;98.40;;;;;;5061561;28;20230;-75
2021/04/06 06:20:31;;;;;;;12.25;1.83;;;3.40;98.40;;;;;;5061685;28;20218;-74
2021/04/06 06:23:18;;;;;;;17.13;1.80;;;3.50;98.60;;;;;;5041548;28;20655;-75
2021/04/06 06:26:13;;;;;;;11.43;1.80;;;3.40;98.60;;;;;;5054459;28;20214;-76
2021/04/06 06:28:41;;;;;;;16.30;2.17;;;3.50;98.70;;;;;;5061062;28;20202;-74
2021/04/06 06:31:08;;;;;;;14.32;2.13;;;3.40;98.70;;;;;;5066261;28;20244;-74
2021/04/06 06:33:35;;;;;;;11.32;2.00;;;3.50;98.80;;;;;;5057139;28;20199;-74
2021/04/06 06:36:05;;;;;;;14.07;1.95;;;3.50;98.80;;;;;;5059503;28;20199;-73
2021/04/06 06:38:34;;;;;;;11.77;2.13;;;3.50;98.80;;;;;;5062636;28;20388;-76
2021/04/06 06:41:12;;;;;;;18.25;2.80;;;3.60;99.00;;;;;;5056126;28;20203;-76
2021/04/06 06:43:41;;;;;;;11.20;2.35;;;3.60;99.00;;;;;;5062553;28;20202;-74
2021/04/06 06:46:17;;;;;;;10.07;2.17;;;3.70;99.10;;;;;;5062742;28;20199;-75
2021/04/06 06:48:52;;;;;;;18.50;2.88;;;3.80;99.10;;;;;;5057933;28;20694;-75
2021/04/06 06:51:19;;;;;;;9.68;2.40;;;3.80;99.10;;;;;;5061074;28;20209;-75
2021/04/06 06:53:46;;;;;;;14.70;2.28;;;3.90;99.20;;;;;;5060713;28;20211;-75
2021/04/06 06:56:12;;;;;;;14.07;2.55;;;3.90;99.10;;;;;;5059266;28;20210;-78
2021/04/06 06:58:41;;;;;;;10.23;1.95;;;3.90;99.00;;;;;;5061663;28;20247;-75
2021/04/06 07:01:21;;;;;;;11.30;1.95;;;3.90;99.00;;;;;;5063499;28;20213;-74
2021/04/06 07:04:01;;;;;;;13.80;1.98;;;3.90;99.00;;;;;;5061399;28;20300;-75
2021/04/06 07:06:28;;;;;;;14.52;2.42;;;3.80;99.00;;;;;;5058806;28;20697;-75
2021/04/06 07:08:55;;;;;;;20.55;2.72;;;3.80;99.00;;;;;;5064000;28;20195;-75
2021/04/06 07:11:23;;;;;;;14.88;2.15;;;3.80;99.10;;;;;;5063316;28;20186;-76
2021/04/06 07:13:52;;;;;;;14.75;2.22;;;3.80;99.10;;;;;;5060490;28;20238;-76
2021/04/06 07:16:20;;;;;;;17.27;2.67;;;3.90;99.20;;;;;;5070508;28;20210;-75
2021/04/06 07:18:49;;;;;;;20.30;2.88;;;3.80;99.60;;;;;;5061743;28;20556;-76
2021/04/06 07:21:18;;;;;;;14.50;2.08;;;3.80;99.40;;;;;;5062558;28;20223;-79
2021/04/06 07:23:49;;;;;;;13.60;2.10;;;3.80;99.50;;;;;;5059255;28;20603;-74
2021/04/06 07:26:18;;;;;;;13.80;2.00;;;3.80;99.70;;;;;;5067523;28;20522;-74
2021/04/06 07:28:44;;;;;;;13.07;1.92;;;3.80;99.90;;;;;;5060260;28;20194;-77
2021/04/06 07:31:14;;;;;;;10.68;1.98;;;3.90;99.70;;;;;;5062014;28;20210;-78
2021/04/06 07:33:42;;;;;;;15.95;1.90;;;3.90;99.70;;;;;;5059123;28;20282;-77
2021/04/06 07:36:10;;;;;;;8.85;1.67;;;3.90;99.60;;;;;;5045226;28;20230;-74
2021/04/06 07:38:40;;;;;;;8.85;1.58;;;3.90;99.60;;;;;;5065847;28;20233;-78
2021/04/06 07:41:08;;;;;;;9.15;1.90;;;4.00;99.60;;;;;;5067832;28;20588;-73
2021/04/06 07:43:35;;;;;;;9.68;1.80;;;4.00;99.50;;;;;;5060922;28;20778;-74
2021/04/06 07:46:01;;;;;;;8.68;2.22;;;4.00;99.40;;;;;;5049470;28;20223;-77
2021/04/06 07:48:43;;;;;;;15.25;1.85;;;4.10;99.40;;;;;;5049776;28;20210;-75
2021/04/06 07:51:22;;;;;;;14.32;2.20;;;4.20;99.30;;;;;;5065855;28;20210;-74
2021/04/06 07:54:04;;;;;;;12.93;1.77;;;4.20;99.10;;;;;;5065496;28;20329;-75
2021/04/06 07:56:53;;;;;;;10.32;1.40;;;4.20;99.00;;;;;;5062541;28;20194;-75
2021/04/06 07:59:43;;;;;;;6.75;1.55;;;4.20;98.80;;;;;;5056995;28;20257;-76
2021/04/06 08:02:30;;;;;;;10.43;1.15;;;4.20;98.70;;;;;;5048112;28;20210;-75
2021/04/06 08:05:02;;;;;;;7.13;1.48;;;4.30;98.60;;;;;;5045523;28;20240;-75
2021/04/06 08:07:32;;;;;;;9.32;1.63;;;4.30;98.50;;;;;;5061779;28;20215;-75
2021/04/06 08:10:31;;;;;;;12.95;1.60;;;4.40;98.60;;;;;;5063451;28;20194;-75
2021/04/06 08:13:00;;;;;;;19.80;2.30;;;4.50;98.60;;;;;;5050259;28;20232;-74
2021/04/06 08:15:32;;;;;;;12.43;2.05;;;4.60;98.50;;;;;;5058583;28;20203;-73
2021/04/06 08:18:00;;;;;;;15.10;2.17;;;4.60;98.20;;;;;;5056619;28;20212;-76
2021/04/06 08:20:40;;;;;;;10.48;1.88;;;4.60;98.10;;;;;;5047998;28;20214;-74
2021/04/06 08:23:09;;;;;;;15.23;2.30;;;4.60;98.00;;;;;;5045806;28;20203;-74
2021/04/06 08:25:53;;;;;;;10.57;1.88;;;4.60;98.10;;;;;;5048121;28;20210;-76
2021/04/06 08:28:36;;;;;;;11.90;1.98;;;4.60;98.20;;;;;;5038795;28;20298;-74
2021/04/06 08:31:33;;;;;;;10.30;1.40;;;4.70;98.50;;;;;;5045241;28;20200;-74
2021/04/06 08:34:28;;;;;;;19.38;2.45;;;4.80;98.50;;;;;;5056829;28;20564;-76
2021/04/06 08:37:10;;;;;;;11.00;1.95;;;4.90;98.50;;;;;;5017074;28;20202;-74
2021/04/06 08:39:38;;;;;;;10.40;2.05;;;5.00;98.50;;;;;;5047414;28;20298;-75
2021/04/06 08:42:06;;;;;;;10.55;1.80;;;5.10;98.40;;;;;;5047399;28;20199;-75
2021/04/06 08:44:34;;;;;;;7.20;1.45;;;5.10;98.30;;;;;;5061939;28;20218;-74
2021/04/06 08:47:01;;;;;;;7.18;1.58;;;5.10;98.10;;;;;;5043179;28;20217;-75
2021/04/06 08:49:28;;;;;;;14.85;2.13;;;5.10;98.00;;;;;;5054949;28;20286;-75
2021/04/06 08:51:56;;;;;;;10.82;1.52;;;5.10;97.90;;;;;;5056081;28;20690;-75
2021/04/06 08:54:26;;;;;;;10.77;2.05;;;5.10;97.70;;;;;;5045153;28;20195;-75
2021/04/06 08:56:54;;;;;;;6.25;1.50;;;5.10;97.60;;;;;;5063467;28;20198;-75
2021/04/06 08:59:25;;;;;;;7.25;1.25;;;5.10;97.30;;;;;;5038353;28;20234;-74
2021/04/06 09:01:56;;;;;;;6.43;1.70;;;5.00;97.10;;;;;;5065949;28;20206;-75
2021/04/06 09:04:24;;;;;;;11.95;1.75;;;4.80;96.70;;;;;;5063547;28;20209;-75
2021/04/06 09:06:51;;;;;;;11.65;2.55;;;4.70;96.60;;;;;;5043649;28;20204;-76
2021/04/06 09:09:20;;;;;;;6.90;1.33;;;4.70;96.60;;;;;;5044127;28;20574;-74
2021/04/06 09:11:49;;;;;;;10.05;1.90;;;4.50;96.60;;;;;;5038332;28;20207;-74
2021/04/06 09:14:16;;;;;;;5.00;1.33;;;4.40;96.50;;;;;;5043479;28;20236;-75
2021/04/06 09:16:43;;;;;;;9.90;2.17;;;4.40;96.60;;;;;;5041460;28;20199;-75
2021/04/06 09:19:12;;;;;;;11.85;1.67;;;4.40;96.80;;;;;;5062510;28;20253;-74
2021/04/06 09:21:40;;;;;;;11.90;2.35;;;4.40;97.00;;;;;;5062646;28;20202;-74
2021/04/06 09:24:09;;;;;;;14.88;2.00;;;4.50;97.20;;;;;;5058815;28;20651;-74
2021/04/06 09:26:36;;;;;;;14.25;2.10;;;4.60;97.40;;;;;;5056440;28;20670;-75
2021/04/06 09:29:08;;;;;;;13.82;2.08;;;4.80;97.70;;;;;;5055027;28;20255;-74
2021/04/06 09:31:38;;;;;;;10.60;1.77;;;4.90;97.90;;;;;;5062583;28;20195;-76
2021/04/06 09:34:08;;;;;;;13.60;2.08;;;5.00;97.30;;;;;;5060657;28;20203;-74
2021/04/06 09:36:34;;;;;;;12.15;1.90;;;5.00;97.10;;;;;;5057463;28;20651;-74
2021/04/06 09:39:03;;;;;;;7.45;1.08;;;4.90;97.10;;;;;;5057240;28;20655;-74
2021/04/06 09:41:32;;;;;;;7.03;1.17;;;4.90;97.20;;;;;;5060492;28;20206;-75
2021/04/06 09:43:58;;;;;;;4.38;1.13;;;4.80;97.10;;;;;;5058468;28;20207;-76
2021/04/06 09:46:48;;;;;;;4.38;1.00;;;4.70;97.20;;;;;;5058689;28;20199;-74
2021/04/06 09:49:16;;;;;;;3.45;1.00;;;4.60;97.10;;;;;;5036587;28;20294;-75
2021/04/06 09:51:45;;;;;;;4.65;0.95;;;4.50;97.20;;;;;;5045349;28;20206;-75
2021/04/06 09:54:13;;;;;;;4.13;1.00;;;4.50;97.20;;;;;;5054778;28;20281;-75
2021/04/06 09:56:40;;;;;;;10.32;1.20;;;4.50;97.20;;;;;;5064185;28;20264;-74
2021/04/06 09:59:08;;;;;;;4.68;1.20;;;4.60;97.20;;;;;;5057094;28;20242;-77
2021/04/06 10:01:36;;;;;;;7.30;1.33;;;4.60;97.10;;;;;;5043779;28;20210;-74
2021/04/06 10:04:05;;;;;;;11.80;1.85;;;4.50;97.10;;;;;;5064309;28;20233;-75
2021/04/06 10:06:40;;;;;;;6.15;1.40;;;4.60;97.10;;;;;;5055369;28;20198;-74
2021/04/06 10:09:22;;;;;;;12.52;2.83;;;4.60;97.20;;;;;;5043421;28;20194;-75
2021/04/06 10:11:49;;;;;;;10.13;1.70;;;4.70;97.20;;;;;;5060319;28;20209;-76
2021/04/06 10:14:16;;;;;;;9.40;1.52;;;4.80;97.30;;;;;;5057774;28;20206;-75
2021/04/06 10:16:43;;;;;;;15.07;1.77;;;5.00;97.50;;;;;;5058511;28;20295;-74
2021/04/06 10:19:25;;;;;;;8.05;1.77;;;5.10;97.60;;;;;;5064058;28;20215;-76
2021/04/06 10:22:10;;;;;;;9.05;1.40;;;5.30;97.60;;;;;;5060664;28;20216;-75
2021/04/06 10:24:41;;;;;;;16.33;2.03;;;5.40;97.40;;;;;;5037254;28;20297;-76
2021/04/06 10:27:19;;;;;;;12.60;1.70;;;5.40;97.10;;;;;;5061442;28;20285;-76
2021/04/06 10:29:51;;;;;;;11.55;1.55;;;5.40;96.90;;;;;;5051379;28;20194;-75
2021/04/06 10:32:31;;;;;;;9.77;1.58;;;5.40;96.80;;;;;;5058858;28;20256;-75
2021/04/06 10:35:03;;;;;;;4.72;1.13;;;5.30;96.60;;;;;;5045007;28;20274;-75
2021/04/06 10:37:43;;;;;;;7.65;1.27;;;5.20;96.50;;;;;;5041492;28;20524;-75
2021/04/06 10:40:42;;;;;;;5.60;0.90;;;5.20;96.40;;;;;;5058528;28;20289;-76
2021/04/06 10:43:12;;;;;;;8.40;1.30;;;5.10;96.30;;;;;;4970614;28;20213;-73
2021/04/06 10:45:40;;;;;;;5.25;1.27;;;5.00;96.30;;;;;;5045301;28;20239;-75
2021/04/06 10:48:11;;;;;;;11.27;1.50;;;4.90;96.30;;;;;;5063878;28;20278;-76
2021/04/06 10:50:41;;;;;;;11.60;1.60;;;4.90;96.30;;;;;;5066419;28;20207;-76
2021/04/06 10:53:19;;;;;;;9.27;1.17;;;4.80;96.20;;;;;;5059184;28;20195;-75
2021/04/06 10:55:50;;;;;;;5.70;1.40;;;4.90;96.30;;;;;;5056440;28;20203;-77
2021/04/06 10:58:22;;;;;;;5.43;1.30;;;4.90;96.40;;;;;;5067379;28;20233;-75
2021/04/06 11:00:59;;;;;;;7.97;1.40;;;5.00;96.80;;;;;;5058817;28;20190;-76
2021/04/06 11:03:26;;;;;;;12.15;1.60;;;5.20;96.60;;;;;;5061907;28;20277;-76
2021/04/06 11:05:53;;;;;;;13.35;1.70;;;5.40;96.70;;;;;;5038339;28;20345;-75
2021/04/06 11:08:24;;;;;;;8.88;1.80;;;5.60;96.70;;;;;;5059726;28;20657;-75
2021/04/06 11:10:52;;;;;;;13.05;2.08;;;5.80;96.70;;;;;;5067512;28;20223;-77
2021/04/06 11:13:19;;;;;;;13.13;2.22;;;6.00;96.70;;;;;;5054145;28;20662;-75
2021/04/06 11:15:46;;;;;;;11.52;1.63;;;6.20;96.70;;;;;;5066089;28;20198;-75
2021/04/06 11:18:13;;;;;;;18.35;2.13;;;6.30;96.50;;;;;;5064621;28;20305;-76
2021/04/06 11:20:40;;;;;;;12.60;1.88;;;6.40;96.20;;;;;;5061381;28;20214;-76
2021/04/06 11:23:08;;;;;;;18.80;2.50;;;6.50;95.80;;;;;;5072808;28;20281;-76
2021/04/06 11:25:37;;;;;;;12.63;2.20;;;6.60;95.70;;;;;;5064610;28;20210;-75
2021/04/06 11:28:04;;;;;;;11.93;1.88;;;6.60;95.20;;;;;;5065328;28;20285;-74
2021/04/06 11:30:35;;;;;;;12.05;1.75;;;6.70;94.90;;;;;;5046543;28;20628;-75
2021/04/06 11:33:03;;;;;;;11.40;2.03;;;6.70;94.50;;;;;;5048713;28;20569;-75
2021/04/06 11:35:30;;;;;;;15.48;1.80;;;6.80;94.20;;;;;;5059717;28;20289;-78
2021/04/06 11:37:57;;;;;;;10.40;1.90;;;6.80;94.00;;;;;;5050505;28;20235;-76
2021/04/06 11:40:27;;;;;;;11.32;2.08;;;6.90;93.80;;;;;;5044948;28;20306;-79
2021/04/06 11:42:54;;;;;;;18.40;2.38;;;7.00;93.70;;;;;;5065386;28;20682;-77
2021/04/06 11:45:22;;;;;;;12.60;2.42;;;7.10;93.50;;;;;;5047679;28;20199;-74
2021/04/06 11:47:51;;;;;;;7.72;1.52;;;7.00;93.00;;;;;;5063149;28;20236;-76
2021/04/06 11:50:18;;;;;;;7.53;1.30;;;6.90;92.30;;;;;;5058853;28;20199;-76
2021/04/06 11:52:45;;;;;;;6.15;1.10;;;6.80;91.90;;;;;;5061323;28;20218;-77
2021/04/06 11:55:13;;;;;;;8.13;1.40;;;6.60;91.90;;;;;;5066618;28;20201;-76
2021/04/06 11:57:41;;;;;;;10.05;1.70;;;6.60;92.00;;;;;;5064796;28;20256;-76
2021/04/06 12:00:09;;;;;;;7.80;1.73;;;6.50;91.80;;;;;;5046607;28;20248;-76
2021/04/06 12:02:35;;;;;;;13.40;1.85;;;6.40;91.80;;;;;;5046504;28;20206;-75
2021/04/06 12:05:08;;;;;;;11.70;1.52;;;6.40;92.00;;;;;;5069890;28;20216;-75
2021/04/06 12:07:35;;;;;;;10.20;1.70;;;6.30;92.50;;;;;;5059673;28;20209;-75
2021/04/06 12:10:02;;;;;;;10.90;1.67;;;6.30;92.80;;;;;;5047509;28;20265;-76
2021/04/06 12:12:28;;;;;;;13.55;2.40;;;6.50;93.20;;;;;;5054924;28;20621;-75
2021/04/06 12:14:56;;;;;;;12.75;1.98;;;6.50;93.30;;;;;;5065790;28;20601;-73
2021/04/06 12:17:22;;;;;;;11.63;2.08;;;6.50;93.40;;;;;;5063654;28;20203;-73
2021/04/06 12:19:49;;;;;;;8.10;1.73;;;6.60;93.50;;;;;;5060382;28;20218;-73
2021/04/06 12:22:17;;;;;;;7.78;1.73;;;6.70;93.40;;;;;;5068719;28;20260;-75
2021/04/06 12:24:44;;;;;;;11.80;1.25;;;6.80;93.30;;;;;;5040966;28;20203;-75
2021/04/06 12:27:10;;;;;;;13.45;2.30;;;6.90;93.10;;;;;;5059656;28;20276;-73
2021/04/06 12:29:37;;;;;;;8.80;1.50;;;7.00;93.00;;;;;;5047240;28;20206;-74
2021/04/06 12:32:05;;;;;;;6.90;1.08;;;7.10;92.90;;;;;;5057037;28;20248;-74
2021/04/06 12:34:31;;;;;;;5.78;1.35;;;7.30;92.70;;;;;;5060626;28;20294;-73
2021/04/06 12:36:58;;;;;;;13.48;1.67;;;7.40;92.10;;;;;;5061448;28;20209;-74
2021/04/06 12:39:24;;;;;;;8.73;1.60;;;7.40;91.70;;;;;;5044836;28;20245;-75
2021/04/06 12:41:51;;;;;;;7.88;1.58;;;7.50;92.10;;;;;;5057812;28;20191;-73
2021/04/06 12:44:17;;;;;;;9.60;1.63;;;7.70;92.20;;;;;;5057018;28;20201;-75
2021/04/06 12:46:44;;;;;;;9.18;1.33;;;7.90;92.30;;;;;;5065705;28;20610;-76
2021/04/06 12:49:11;;;;;;;7.63;1.35;;;8.00;92.00;;;;;;5043065;28;20656;-76
2021/04/06 12:51:37;;;;;;;8.20;1.23;;;8.10;91.40;;;;;;5057748;28;20542;-75
2021/04/06 12:54:04;;;;;;;9.30;1.40;;;8.10;91.10;;;;;;5042530;28;20220;-76
2021/04/06 12:56:40;;;;;;;3.03;0.85;;;8.20;90.70;;;;;;5064541;28;20270;-78
2021/04/06 12:59:07;;;;;;;4.43;0.88;;;8.30;90.70;;;;;;5058559;28;20222;-75
2021/04/06 13:01:33;;;;;;;9.18;1.30;;;8.30;90.00;;;;;;5062257;28;20286;-74
2021/04/06 13:04:00;;;;;;;6.43;1.50;;;8.40;89.30;;;;;;5045521;28;20342;-76